createdAt,value
2019-06-10T00:02:10.930Z,15.61
2019-06-10T00:04:41.519Z,15.61
2019-06-10T00:07:11.783Z,15.51
2019-06-10T00:09:41.228Z,15.59
2019-06-10T00:12:12.741Z,15.56
2019-06-10T00:14:41.853Z,15.61
2019-06-10T00:17:11.232Z,15.56
2019-06-10T00:19:40.932Z,15.64
2019-06-10T00:22:11.494Z,15.61
2019-06-10T00:24:41.099Z,15.47
2019-06-10T00:27:11.707Z,15.43
2019-06-10T00:29:41.209Z,15.31
2019-06-10T00:32:13.041Z,15.43
2019-06-10T00:34:42.031Z,15.36
2019-06-10T00:37:14.487Z,15.24
2019-06-10T00:39:42.284Z,15.21
2019-06-10T00:42:14.943Z,15.22
2019-06-10T00:44:42.469Z,15.18
2019-06-10T00:47:14.825Z,15.19
2019-06-10T00:49:42.608Z,15.16
2019-06-10T00:52:13.820Z,15.21
2019-06-10T00:54:42.625Z,15.19
2019-06-10T00:57:12.466Z,15.13
2019-06-10T00:59:42.941Z,15.07
2019-06-10T01:02:14.046Z,15.02
2019-06-10T01:04:43.028Z,15.00
2019-06-10T01:07:14.775Z,14.90
2019-06-10T01:09:43.083Z,14.86
2019-06-10T01:12:14.757Z,14.78
2019-06-10T01:14:43.195Z,14.74
2019-06-10T01:17:14.068Z,14.79
2019-06-10T01:19:44.335Z,14.76
2019-06-10T01:22:14.206Z,14.74
2019-06-10T01:24:44.574Z,14.74
2019-06-10T01:27:15.093Z,14.74
2019-06-10T01:29:44.388Z,14.73
2019-06-10T01:32:15.042Z,14.72
2019-06-10T01:34:44.388Z,14.70
2019-06-10T01:37:14.744Z,14.68
2019-06-10T01:39:44.629Z,14.68
2019-06-10T01:42:14.426Z,14.72
2019-06-10T01:44:44.888Z,14.63
2019-06-10T01:47:14.675Z,14.64
2019-06-10T01:49:45.111Z,14.66
2019-06-10T01:52:15.189Z,14.53
2019-06-10T01:54:45.421Z,14.53
2019-06-10T01:57:16.929Z,14.49
2019-06-10T01:59:46.496Z,14.51
2019-06-10T02:02:23.856Z,14.50
2019-06-10T02:04:52.645Z,14.45
2019-06-10T02:07:23.071Z,14.30
2019-06-10T02:09:52.809Z,14.22
2019-06-10T02:12:24.381Z,14.15
2019-06-10T02:14:53.939Z,14.04
2019-06-10T02:17:24.081Z,14.05
2019-06-10T02:19:53.565Z,13.91
2019-06-10T02:22:24.201Z,13.78
2019-06-10T02:24:53.801Z,13.73
2019-06-10T02:27:23.288Z,13.72
2019-06-10T02:29:52.605Z,13.66
2019-06-10T02:32:31.275Z,13.68
2019-06-10T02:35:03.716Z,13.66
2019-06-10T02:37:31.750Z,13.62
2019-06-10T02:39:54.977Z,13.66
2019-06-10T02:42:36.097Z,13.63
2019-06-10T02:45:07.206Z,13.64
2019-06-10T02:47:37.859Z,13.63
2019-06-10T02:50:09.155Z,13.49
2019-06-10T02:52:38.956Z,13.45
2019-06-10T02:55:08.207Z,13.53
2019-06-10T02:57:40.348Z,13.52
2019-06-10T03:00:19.778Z,13.39
2019-06-10T03:02:44.564Z,13.36
2019-06-10T03:05:14.321Z,13.36
2019-06-10T03:07:44.312Z,13.36
2019-06-10T03:10:13.854Z,13.39
2019-06-10T03:12:43.109Z,13.36
2019-06-10T03:15:12.731Z,13.36
2019-06-10T03:17:42.911Z,13.40
2019-06-10T03:20:12.435Z,13.42
2019-06-10T03:22:42.318Z,13.45
2019-06-10T03:25:13.107Z,13.41
2019-06-10T03:27:42.603Z,13.49
2019-06-10T03:30:17.168Z,13.50
2019-06-10T03:32:46.620Z,13.64
2019-06-10T03:35:14.446Z,13.58
2019-06-10T03:37:43.616Z,13.64
2019-06-10T03:40:14.508Z,13.67
2019-06-10T03:42:43.743Z,13.62
2019-06-10T03:45:13.087Z,13.66
2019-06-10T03:47:42.844Z,13.70
2019-06-10T03:50:13.215Z,13.69
2019-06-10T03:52:43.256Z,13.70
2019-06-10T03:55:12.665Z,13.64
2019-06-10T03:57:42.881Z,13.66
2019-06-10T04:00:13.886Z,13.66
2019-06-10T04:02:43.479Z,13.66
2019-06-10T04:05:13.329Z,13.64
2019-06-10T04:07:42.916Z,13.72
2019-06-10T04:10:12.704Z,13.64
2019-06-10T04:12:43.519Z,13.63
2019-06-10T04:15:13.094Z,13.64
2019-06-10T04:17:42.755Z,13.69
2019-06-10T04:20:15.444Z,13.67
2019-06-10T04:22:44.444Z,13.77
2019-06-10T04:25:13.803Z,13.75
2019-06-10T04:27:43.034Z,13.68
2019-06-10T04:30:13.462Z,13.75
2019-06-10T04:32:43.236Z,13.83
2019-06-10T04:35:12.779Z,13.86
2019-06-10T04:37:42.782Z,13.81
2019-06-10T04:40:13.404Z,13.86
2019-06-10T04:42:43.556Z,13.88
2019-06-10T04:45:14.384Z,14.04
2019-06-10T04:47:43.573Z,14.14
2019-06-10T04:50:24.730Z,13.96
2019-06-10T04:52:44.402Z,13.90
2019-06-10T04:55:13.868Z,13.93
2019-06-10T04:57:45.208Z,13.97
2019-06-10T05:00:14.966Z,14.10
2019-06-10T05:02:44.132Z,14.18
2019-06-10T05:05:13.426Z,14.41
2019-06-10T05:07:42.874Z,14.38
2019-06-10T05:10:12.582Z,14.55
2019-06-10T05:12:43.310Z,14.72
2019-06-10T05:15:12.817Z,14.80
2019-06-10T05:17:43.773Z,14.88
2019-06-10T05:20:13.396Z,15.10
2019-06-10T05:22:42.634Z,14.92
2019-06-10T05:25:12.823Z,14.86
2019-06-10T05:27:42.900Z,14.93
2019-06-10T05:30:12.768Z,15.06
2019-06-10T05:32:43.271Z,14.93
2019-06-10T05:35:12.710Z,14.93
2019-06-10T05:37:42.403Z,14.97
2019-06-10T05:40:12.746Z,14.93
2019-06-10T05:42:42.587Z,15.19
2019-06-10T05:45:12.372Z,15.31
2019-06-10T05:47:42.730Z,15.15
2019-06-10T05:50:14.481Z,15.10
2019-06-10T05:52:43.784Z,15.16
2019-06-10T05:55:13.120Z,15.40
2019-06-10T05:57:42.965Z,15.30
2019-06-10T06:00:14.938Z,15.33
2019-06-10T06:02:43.406Z,15.23
2019-06-10T06:05:12.976Z,15.23
2019-06-10T06:07:42.542Z,15.33
2019-06-10T06:10:13.028Z,15.56
2019-06-10T06:12:42.666Z,15.47
2019-06-10T06:15:12.958Z,15.81
2019-06-10T06:17:43.193Z,16.01
2019-06-10T06:20:13.408Z,15.83
2019-06-10T06:22:43.014Z,16.00
2019-06-10T06:25:15.228Z,15.76
2019-06-10T06:27:43.510Z,16.00
2019-06-10T06:30:18.602Z,16.11
2019-06-10T06:32:44.325Z,16.09
2019-06-10T06:35:13.894Z,16.26
2019-06-10T06:37:43.372Z,16.28
2019-06-10T06:40:13.374Z,16.59
2019-06-10T06:42:43.443Z,16.67
2019-06-10T06:45:13.026Z,16.72
2019-06-10T06:47:43.720Z,16.89
2019-06-10T06:50:13.386Z,16.93
2019-06-10T06:53:15.493Z,16.97
2019-06-10T06:55:13.801Z,17.03
2019-06-10T06:57:43.426Z,17.11
2019-06-10T07:00:37.354Z,17.03
2019-06-10T07:02:44.314Z,17.08
2019-06-10T07:05:13.480Z,17.05
2019-06-10T07:07:43.345Z,17.15
2019-06-10T07:10:14.643Z,17.31
2019-06-10T07:12:44.722Z,17.40
2019-06-10T07:15:14.023Z,17.80
2019-06-10T07:17:45.588Z,17.65
2019-06-10T07:20:14.311Z,18.10
2019-06-10T07:22:46.593Z,18.37
2019-06-10T07:25:14.519Z,18.68
2019-06-10T07:27:46.469Z,18.92
2019-06-10T07:30:15.329Z,19.38
2019-06-10T07:32:47.282Z,19.44
2019-06-10T07:35:15.489Z,19.70
2019-06-10T07:37:46.070Z,20.21
2019-06-10T07:40:15.535Z,20.28
2019-06-10T07:42:45.422Z,20.50
2019-06-10T07:45:15.950Z,20.26
2019-06-10T07:47:45.799Z,19.84
2019-06-10T07:50:15.960Z,20.15
2019-06-10T07:52:46.881Z,20.47
2019-06-10T07:55:16.785Z,20.56
2019-06-10T07:57:45.979Z,19.92
2019-06-10T08:00:15.733Z,20.11
2019-06-10T08:02:46.122Z,19.82
2019-06-10T08:05:15.717Z,19.95
2019-06-10T08:07:47.235Z,20.31
2019-06-10T08:10:16.134Z,20.50
2019-06-10T08:12:46.999Z,20.56
2019-06-10T08:15:16.263Z,20.44
2019-06-10T08:17:45.790Z,20.28
2019-06-10T08:20:17.795Z,19.96
2019-06-10T08:22:54.001Z,20.33
2019-06-10T08:25:18.290Z,20.25
2019-06-10T08:27:49.255Z,20.65
2019-06-10T08:30:24.007Z,20.91
2019-06-10T08:32:53.344Z,20.64
2019-06-10T08:35:35.857Z,20.58
2019-06-10T08:37:52.918Z,20.33
2019-06-10T08:40:22.968Z,20.32
2019-06-10T08:42:53.756Z,20.22
2019-06-10T08:45:23.265Z,20.61
2019-06-10T08:47:54.214Z,20.82
2019-06-10T08:50:24.876Z,20.79
2019-06-10T08:53:10.281Z,21.21
2019-06-10T08:55:25.312Z,21.44
2019-06-10T08:57:56.634Z,21.46
2019-06-10T09:00:26.312Z,21.99
2019-06-10T09:02:55.494Z,22.14
2019-06-10T09:05:25.438Z,22.67
2019-06-10T09:07:54.674Z,22.83
2019-06-10T09:10:23.883Z,22.73
2019-06-10T09:12:54.672Z,22.52
2019-06-10T09:15:24.272Z,22.81
2019-06-10T09:17:56.145Z,22.51
2019-06-10T09:20:25.726Z,22.30
2019-06-10T09:23:14.984Z,21.53
2019-06-10T09:25:25.826Z,22.12
2019-06-10T09:27:55.048Z,21.88
2019-06-10T09:30:24.581Z,21.91
2019-06-10T09:32:56.809Z,22.37
2019-06-10T09:35:24.796Z,22.55
2019-06-10T09:37:55.710Z,22.88
2019-06-10T09:40:33.866Z,22.80
2019-06-10T09:43:03.176Z,22.62
2019-06-10T09:45:33.232Z,23.00
2019-06-10T09:48:05.220Z,22.91
2019-06-10T09:50:48.549Z,22.97
2019-06-10T09:53:26.681Z,23.65
2019-06-10T09:55:46.297Z,23.33
2019-06-10T09:58:13.379Z,23.84
2019-06-10T10:00:47.352Z,23.73
2019-06-10T10:03:12.506Z,23.30
2019-06-10T10:05:45.543Z,23.59
2019-06-10T10:08:12.697Z,23.99
2019-06-10T10:10:43.224Z,23.26
2019-06-10T10:13:13.055Z,24.34
2019-06-10T10:15:41.874Z,25.35
2019-06-10T10:18:13.199Z,25.47
2019-06-10T10:20:44.869Z,24.57
2019-06-10T10:23:13.018Z,24.31
2019-06-10T10:25:43.334Z,23.94
2019-06-10T10:28:10.555Z,23.89
2019-06-10T10:30:38.911Z,24.09
2019-06-10T10:33:07.223Z,24.85
2019-06-10T10:35:35.449Z,24.50
2019-06-10T10:38:03.838Z,23.94
2019-06-10T10:40:32.737Z,24.53
2019-06-10T10:43:22.468Z,25.14
2019-06-10T10:45:32.543Z,25.13
2019-06-10T10:48:02.507Z,23.63
2019-06-10T10:50:34.025Z,23.46
2019-06-10T10:53:01.606Z,23.37
2019-06-10T10:55:29.964Z,24.14
2019-06-10T10:57:58.204Z,24.58
2019-06-10T11:00:28.012Z,24.41
2019-06-10T11:02:56.273Z,23.74
2019-06-10T11:05:34.322Z,24.15
2019-06-10T11:08:04.343Z,24.41
2019-06-10T11:10:32.981Z,24.55
2019-06-10T11:13:05.420Z,25.06
2019-06-10T11:15:34.001Z,24.89
2019-06-10T11:18:03.944Z,25.00
2019-06-10T11:20:33.676Z,25.57
2019-06-10T11:23:02.949Z,26.07
2019-06-10T11:25:33.303Z,25.92
2019-06-10T11:28:04.134Z,25.95
2019-06-10T11:30:32.383Z,25.79
2019-06-10T11:33:03.339Z,26.04
2019-06-10T11:35:30.764Z,25.75
2019-06-10T11:37:59.021Z,26.05
2019-06-10T11:40:27.275Z,25.98
2019-06-10T11:42:58.027Z,26.22
2019-06-10T11:45:25.439Z,27.34
2019-06-10T11:47:55.494Z,26.10
2019-06-10T11:50:23.561Z,26.40
2019-06-10T11:52:55.454Z,26.78
2019-06-10T11:55:23.758Z,26.78
2019-06-10T11:57:54.920Z,26.14
2019-06-10T12:00:23.202Z,26.61
2019-06-10T12:02:53.767Z,26.55
2019-06-10T12:05:23.483Z,26.92
2019-06-10T12:07:56.000Z,26.52
2019-06-10T12:10:23.320Z,26.45
2019-06-10T12:12:55.478Z,26.34
2019-06-10T12:15:22.721Z,26.22
2019-06-10T12:17:58.490Z,26.26
2019-06-10T12:20:22.824Z,26.39
2019-06-10T12:22:56.273Z,26.17
2019-06-10T12:25:32.554Z,26.24
2019-06-10T12:27:55.853Z,27.33
2019-06-10T12:30:22.466Z,26.67
2019-06-10T12:32:54.475Z,27.55
2019-06-10T12:35:23.019Z,27.29
2019-06-10T12:37:55.034Z,26.96
2019-06-10T12:40:21.773Z,25.69
2019-06-10T12:42:52.486Z,26.01
2019-06-10T12:45:19.922Z,26.52
2019-06-10T12:47:48.149Z,26.26
2019-06-10T12:50:16.645Z,26.52
2019-06-10T12:52:44.892Z,26.33
2019-06-10T12:55:13.664Z,25.70
2019-06-10T12:57:42.815Z,26.22
2019-06-10T13:00:20.585Z,26.53
2019-06-10T13:02:42.731Z,27.64
2019-06-10T13:05:12.223Z,27.95
2019-06-10T13:07:42.687Z,28.32
2019-06-10T13:10:12.205Z,27.61
2019-06-10T13:12:42.886Z,27.82
2019-06-10T13:15:12.710Z,28.22
2019-06-10T13:17:44.146Z,28.97
2019-06-10T13:20:13.587Z,28.37
2019-06-10T13:22:43.224Z,30.09
2019-06-10T13:25:13.361Z,30.63
2019-06-10T13:27:42.829Z,30.79
2019-06-10T13:30:11.130Z,30.70
2019-06-10T13:32:39.408Z,28.18
2019-06-10T13:35:08.149Z,28.21
2019-06-10T13:37:36.355Z,28.39
2019-06-10T13:40:08.114Z,28.17
2019-06-10T13:42:36.896Z,29.44
2019-06-10T13:45:06.773Z,30.85
2019-06-10T13:47:34.364Z,31.53
2019-06-10T13:50:07.344Z,32.50
2019-06-10T13:52:32.735Z,32.95
2019-06-10T13:55:03.458Z,33.39
2019-06-10T13:57:32.234Z,32.73
2019-06-10T14:00:04.226Z,31.31
2019-06-10T14:02:32.329Z,30.32
2019-06-10T14:05:06.813Z,29.44
2019-06-10T14:07:32.409Z,29.63
2019-06-10T14:10:02.967Z,30.03
2019-06-10T14:12:32.297Z,30.42
2019-06-10T14:15:02.567Z,29.98
2019-06-10T14:17:32.888Z,28.86
2019-06-10T14:20:02.153Z,28.83
2019-06-10T14:22:32.859Z,28.21
2019-06-10T14:25:06.425Z,27.78
2019-06-10T14:27:34.233Z,28.59
2019-06-10T14:30:04.981Z,30.32
2019-06-10T14:32:34.385Z,30.81
2019-06-10T14:35:06.667Z,30.39
2019-06-10T14:37:39.112Z,30.85
2019-06-10T14:40:08.767Z,30.70
2019-06-10T14:42:38.112Z,29.90
2019-06-10T14:45:08.721Z,30.32
2019-06-10T14:47:37.993Z,31.02
2019-06-10T14:50:08.838Z,32.01
2019-06-10T14:52:38.029Z,32.91
2019-06-10T14:55:09.185Z,33.05
2019-06-10T14:57:38.603Z,33.55
2019-06-10T15:00:09.660Z,32.73
2019-06-10T15:02:39.135Z,32.44
2019-06-10T15:05:09.271Z,33.07
2019-06-10T15:07:38.549Z,32.38
2019-06-10T15:10:12.047Z,33.45
2019-06-10T15:12:42.402Z,32.25
2019-06-10T15:15:12.147Z,31.63
2019-06-10T15:17:43.066Z,32.51
2019-06-10T15:20:13.614Z,32.17
2019-06-10T15:22:43.191Z,31.09
2019-06-10T15:25:15.235Z,30.96
2019-06-10T15:27:43.398Z,30.50
2019-06-10T15:30:21.611Z,30.96
2019-06-10T15:32:43.515Z,30.51
2019-06-10T15:35:16.553Z,30.88
2019-06-10T15:37:44.062Z,30.11
2019-06-10T15:40:14.079Z,30.43
2019-06-10T15:42:44.247Z,30.02
2019-06-10T15:45:17.652Z,29.47
2019-06-10T15:47:44.608Z,28.31
2019-06-10T15:50:15.832Z,27.93
2019-06-10T15:52:45.082Z,27.93
2019-06-10T15:55:33.504Z,27.71
2019-06-10T15:57:46.529Z,27.31
2019-06-10T16:00:20.045Z,26.93
2019-06-10T16:02:47.234Z,27.31
2019-06-10T16:05:17.788Z,27.67
2019-06-10T16:07:47.292Z,27.49
2019-06-10T16:10:19.603Z,27.37
2019-06-10T16:12:47.502Z,27.32
2019-06-10T16:15:18.169Z,26.83
2019-06-10T16:17:48.024Z,27.28
2019-06-10T16:20:19.428Z,26.93
2019-06-10T16:22:48.790Z,26.97
2019-06-10T16:25:17.982Z,26.95
2019-06-10T16:27:51.081Z,26.73
2019-06-10T16:30:18.500Z,25.98
2019-06-10T16:32:47.858Z,25.68
2019-06-10T16:35:17.278Z,26.05
2019-06-10T16:37:46.474Z,25.98
2019-06-10T16:40:17.144Z,25.87
2019-06-10T16:42:46.408Z,25.60
2019-06-10T16:45:18.910Z,25.45
2019-06-10T16:47:46.845Z,25.48
2019-06-10T16:50:17.226Z,25.25
2019-06-10T16:52:46.524Z,25.41
2019-06-10T16:55:16.055Z,25.24
2019-06-10T16:57:58.562Z,25.32
2019-06-10T17:00:16.589Z,25.49
2019-06-10T17:02:47.318Z,25.31
2019-06-10T17:05:16.819Z,25.55
2019-06-10T17:07:46.149Z,25.55
2019-06-10T17:10:15.596Z,25.67
2019-06-10T17:12:46.554Z,25.28
2019-06-10T17:15:18.867Z,25.32
2019-06-10T17:17:48.530Z,25.20
2019-06-10T17:20:18.604Z,25.34
2019-06-10T17:22:48.072Z,25.14
2019-06-10T17:25:17.483Z,25.40
2019-06-10T17:27:46.817Z,25.32
2019-06-10T17:30:16.949Z,25.38
2019-06-10T17:32:46.148Z,25.10
2019-06-10T17:35:15.427Z,25.19
2019-06-10T17:37:43.781Z,24.88
2019-06-10T17:40:13.743Z,24.83
2019-06-10T17:42:42.967Z,24.65
2019-06-10T17:45:12.869Z,24.30
2019-06-10T17:47:42.663Z,24.23
2019-06-10T17:50:12.603Z,24.20
2019-06-10T17:52:42.696Z,24.22
2019-06-10T17:55:12.583Z,24.35
2019-06-10T17:57:43.002Z,24.35
2019-06-10T18:00:14.967Z,24.30
2019-06-10T18:02:44.065Z,24.10
2019-06-10T18:05:13.554Z,24.07
2019-06-10T18:07:43.132Z,24.01
2019-06-10T18:10:13.207Z,23.90
2019-06-10T18:12:42.946Z,23.86
2019-06-10T18:15:12.741Z,23.79
2019-06-10T18:17:42.755Z,23.67
2019-06-10T18:20:15.820Z,23.55
2019-06-10T18:22:46.714Z,23.63
2019-06-10T18:25:17.971Z,23.31
2019-06-10T18:27:47.286Z,23.29
2019-06-10T18:30:17.944Z,23.23
2019-06-10T18:32:47.646Z,22.66
2019-06-10T18:35:17.388Z,21.84
2019-06-10T18:37:46.936Z,21.20
2019-06-10T18:40:16.447Z,20.67
2019-06-10T18:42:47.040Z,19.94
2019-06-10T18:45:16.932Z,19.08
2019-06-10T18:47:49.115Z,18.19
2019-06-10T18:50:18.719Z,17.94
2019-06-10T18:52:48.509Z,17.79
2019-06-10T18:55:17.226Z,17.58
2019-06-10T18:57:46.062Z,17.54
2019-06-10T19:00:14.906Z,17.41
2019-06-10T19:02:44.241Z,17.37
2019-06-10T19:05:13.152Z,17.35
2019-06-10T19:07:46.726Z,17.38
2019-06-10T19:10:14.110Z,17.35
2019-06-10T19:12:42.678Z,17.38
2019-06-10T19:15:12.139Z,17.43
2019-06-10T19:17:43.970Z,17.51
2019-06-10T19:20:12.920Z,17.54
2019-06-10T19:22:43.216Z,17.62
2019-06-10T19:25:12.728Z,17.79
2019-06-10T19:27:45.997Z,17.68
2019-06-10T19:30:15.582Z,17.58
2019-06-10T19:32:44.447Z,17.62
2019-06-10T19:35:13.659Z,17.70
2019-06-10T19:37:42.542Z,17.68
2019-06-10T19:40:13.329Z,17.49
2019-06-10T19:42:44.504Z,17.57
2019-06-10T19:45:14.864Z,17.48
2019-06-10T19:47:45.550Z,17.31
2019-06-10T19:50:14.521Z,17.38
2019-06-10T19:52:45.719Z,17.29
2019-06-10T19:55:15.989Z,17.29
2019-06-10T19:57:44.303Z,17.26
2019-06-10T20:00:13.393Z,17.30
2019-06-10T20:02:46.533Z,17.31
2019-06-10T20:05:13.372Z,17.32
2019-06-10T20:07:48.441Z,17.37
2019-06-10T20:10:15.859Z,17.36
2019-06-10T20:12:46.649Z,17.26
2019-06-10T20:15:22.682Z,17.26
2019-06-10T20:17:52.550Z,17.25
2019-06-10T20:20:25.076Z,17.25
2019-06-10T20:22:56.598Z,17.35
2019-06-10T20:25:24.548Z,17.31
2019-06-10T20:27:53.574Z,17.25
2019-06-10T20:30:28.320Z,17.41
2019-06-10T20:32:55.949Z,17.42
2019-06-10T20:35:23.148Z,17.56
2019-06-10T20:37:53.818Z,17.52
2019-06-10T20:40:22.064Z,17.50
2019-06-10T20:42:50.626Z,17.40
2019-06-10T20:45:19.043Z,17.32
2019-06-10T20:47:47.961Z,17.36
2019-06-10T20:50:16.641Z,17.39
2019-06-10T20:52:48.999Z,17.36
2019-06-10T20:55:17.369Z,17.32
2019-06-10T20:57:56.610Z,17.33
2019-06-10T21:00:22.904Z,17.25
2019-06-10T21:02:49.090Z,17.30
2019-06-10T21:05:21.869Z,17.32
2019-06-10T21:07:52.801Z,17.41
2019-06-10T21:10:22.616Z,17.40
2019-06-10T21:12:51.067Z,17.40
2019-06-10T21:15:19.361Z,17.34
2019-06-10T21:17:49.127Z,17.20
2019-06-10T21:20:19.765Z,17.24
2019-06-10T21:22:49.012Z,17.17
2019-06-10T21:25:17.301Z,17.16
2019-06-10T21:27:46.795Z,17.19
2019-06-10T21:30:15.535Z,17.14
2019-06-10T21:32:45.674Z,17.15
2019-06-10T21:35:14.076Z,17.19
2019-06-10T21:37:45.089Z,17.18
2019-06-10T21:40:12.761Z,17.21
2019-06-10T21:42:41.652Z,17.22
2019-06-10T21:45:12.545Z,17.16
2019-06-10T21:47:42.836Z,17.17
2019-06-10T21:50:12.402Z,17.21
2019-06-10T21:52:43.080Z,17.26
2019-06-10T21:55:12.997Z,17.26
2019-06-10T21:57:42.603Z,17.17
2019-06-10T22:00:13.350Z,17.23
2019-06-10T22:02:42.760Z,17.15
2019-06-10T22:05:12.315Z,17.22
2019-06-10T22:07:42.288Z,17.25
2019-06-10T22:10:12.714Z,17.26
2019-06-10T22:12:42.205Z,17.24
2019-06-10T22:15:12.275Z,17.23
2019-06-10T22:17:42.309Z,17.25
2019-06-10T22:20:12.324Z,17.31
2019-06-10T22:22:42.689Z,17.23
2019-06-10T22:25:13.023Z,17.23
2019-06-10T22:27:42.099Z,17.19
2019-06-10T22:30:11.571Z,17.06
2019-06-10T22:32:40.022Z,17.05
2019-06-10T22:35:08.518Z,17.12
2019-06-10T22:37:36.862Z,17.18
2019-06-10T22:40:05.233Z,17.13
2019-06-10T22:42:33.924Z,17.07
2019-06-10T22:45:03.785Z,17.02
2019-06-10T22:47:32.439Z,17.02
2019-06-10T22:50:07.147Z,17.03
2019-06-10T22:52:32.176Z,17.04
2019-06-10T22:55:02.987Z,17.17
2019-06-10T22:57:30.270Z,17.16
2019-06-10T22:59:59.429Z,17.05
2019-06-10T23:02:27.769Z,17.03
2019-06-10T23:04:58.020Z,17.04
2019-06-10T23:07:26.775Z,17.13
2019-06-10T23:09:56.351Z,17.14
2019-06-10T23:12:24.902Z,17.07
2019-06-10T23:14:53.676Z,17.04
2019-06-10T23:17:23.016Z,16.95
2019-06-10T23:19:53.584Z,17.06
2019-06-10T23:22:22.028Z,17.02
2019-06-10T23:24:51.514Z,16.97
2019-06-10T23:27:22.192Z,17.01
2019-06-10T23:29:50.528Z,16.83
2019-06-10T23:32:19.558Z,16.78
2019-06-10T23:34:47.865Z,16.71
2019-06-10T23:37:16.122Z,16.65
2019-06-10T23:39:44.348Z,16.67
2019-06-10T23:42:12.623Z,16.69
2019-06-10T23:44:40.987Z,16.74
2019-06-10T23:47:09.228Z,16.80
2019-06-10T23:49:37.505Z,16.76
2019-06-10T23:52:05.981Z,16.73
2019-06-10T23:54:34.424Z,16.85
2019-06-10T23:57:05.511Z,16.88
2019-06-10T23:59:33.293Z,16.85
